createdAt,value
2022-12-11T00:02:07.402Z,93.13
2022-12-11T00:04:34.026Z,93.52
2022-12-11T00:07:00.589Z,93.05
2022-12-11T00:09:27.275Z,93.42
2022-12-11T00:11:53.867Z,93.04
2022-12-11T00:14:20.558Z,93.60
2022-12-11T00:16:48.553Z,93.49
2022-12-11T00:19:15.838Z,93.44
2022-12-11T00:21:42.392Z,93.33
2022-12-11T00:24:08.997Z,93.53
2022-12-11T00:26:35.530Z,93.58
2022-12-11T00:29:02.126Z,93.34
2022-12-11T00:31:28.707Z,93.59
2022-12-11T00:33:55.362Z,93.27
2022-12-11T00:36:25.498Z,93.45
2022-12-11T00:38:53.754Z,93.52
2022-12-11T00:41:21.315Z,93.49
2022-12-11T00:43:48.364Z,93.66
2022-12-11T00:46:15.086Z,93.78
2022-12-11T00:48:41.726Z,93.71
2022-12-11T00:51:08.497Z,93.60
2022-12-11T00:53:35.098Z,93.86
2022-12-11T00:56:01.649Z,93.24
2022-12-11T00:58:28.445Z,93.34
2022-12-11T01:00:55.122Z,93.65
2022-12-11T01:03:21.782Z,93.96
2022-12-11T01:05:53.415Z,93.84
2022-12-11T01:08:20.073Z,93.87
2022-12-11T01:10:46.901Z,93.47
2022-12-11T01:13:13.459Z,93.82
2022-12-11T01:15:43.716Z,93.38
2022-12-11T01:18:13.492Z,94.06
2022-12-11T01:20:43.280Z,93.74
2022-12-11T01:23:12.965Z,93.71
2022-12-11T01:25:40.079Z,93.75
2022-12-11T01:28:07.451Z,93.67
2022-12-11T01:30:34.605Z,94.01
2022-12-11T01:33:01.358Z,94.17
2022-12-11T01:35:28.229Z,94.00
2022-12-11T01:37:55.056Z,94.35
2022-12-11T01:40:22.460Z,93.96
2022-12-11T01:42:49.108Z,94.14
2022-12-11T01:45:16.617Z,93.82
2022-12-11T01:47:44.201Z,94.37
2022-12-11T01:50:11.433Z,94.13
2022-12-11T01:52:38.265Z,94.01
2022-12-11T01:55:05.464Z,94.29
2022-12-11T01:57:32.333Z,93.97
2022-12-11T01:59:58.878Z,94.12
2022-12-11T02:02:29.483Z,94.26
2022-12-11T02:04:56.322Z,93.88
2022-12-11T02:07:23.513Z,94.61
2022-12-11T02:09:50.120Z,94.38
2022-12-11T02:12:30.690Z,94.06
2022-12-11T02:15:04.418Z,94.45
2022-12-11T02:17:37.969Z,94.22
2022-12-11T02:20:23.662Z,94.22
2022-12-11T02:23:20.200Z,93.77
2022-12-11T02:26:12.303Z,93.87
2022-12-11T02:28:45.637Z,93.99
2022-12-11T02:31:23.823Z,94.12
2022-12-11T02:34:01.525Z,93.76
2022-12-11T02:36:31.823Z,93.82
2022-12-11T02:39:01.471Z,94.00
2022-12-11T02:41:29.937Z,93.68
2022-12-11T02:43:59.123Z,94.21
2022-12-11T02:46:28.340Z,94.09
2022-12-11T02:48:56.439Z,94.08
2022-12-11T02:51:28.307Z,93.89
2022-12-11T02:53:58.200Z,93.92
2022-12-11T02:56:33.564Z,94.28
2022-12-11T02:59:06.163Z,93.95
2022-12-11T03:01:32.822Z,93.73
2022-12-11T03:03:59.518Z,93.54
2022-12-11T03:06:36.287Z,93.80
2022-12-11T03:09:04.570Z,93.59
2022-12-11T03:11:31.101Z,93.75
2022-12-11T03:13:58.012Z,93.50
2022-12-11T03:16:36.031Z,93.65
2022-12-11T03:19:18.089Z,93.53
2022-12-11T03:21:49.552Z,93.20
2022-12-11T03:24:25.605Z,93.35
2022-12-11T03:27:00.988Z,93.59
2022-12-11T03:29:54.000Z,93.07
2022-12-11T03:32:25.397Z,93.71
2022-12-11T03:34:59.751Z,93.43
2022-12-11T03:37:31.332Z,93.82
2022-12-11T03:40:03.211Z,93.50
2022-12-11T03:42:30.651Z,93.87
2022-12-11T03:44:59.948Z,93.73
2022-12-11T03:47:28.786Z,93.67
2022-12-11T03:49:57.124Z,93.55
2022-12-11T03:52:27.370Z,93.75
2022-12-11T03:54:57.775Z,93.74
2022-12-11T03:57:29.219Z,93.70
2022-12-11T03:59:55.958Z,93.68
2022-12-11T04:02:22.556Z,93.88
2022-12-11T04:04:49.197Z,93.81
2022-12-11T04:07:16.190Z,93.82
2022-12-11T04:09:42.815Z,93.87
2022-12-11T04:12:09.375Z,93.88
2022-12-11T04:14:54.511Z,94.00
2022-12-11T04:17:39.589Z,93.56
2022-12-11T04:20:39.664Z,93.90
2022-12-11T04:23:31.838Z,93.81
2022-12-11T04:26:08.388Z,93.65
2022-12-11T04:28:35.681Z,93.44
2022-12-11T04:31:02.657Z,93.37
2022-12-11T04:33:29.642Z,93.58
2022-12-11T04:36:01.005Z,93.48
2022-12-11T04:38:27.843Z,93.38
2022-12-11T04:41:00.415Z,93.36
2022-12-11T04:43:27.758Z,93.43
2022-12-11T04:46:07.198Z,93.56
2022-12-11T04:48:34.602Z,93.33
2022-12-11T04:51:01.103Z,93.40
2022-12-11T04:53:28.077Z,93.37
2022-12-11T04:55:55.082Z,93.51
2022-12-11T04:58:22.710Z,93.18
2022-12-11T05:00:49.271Z,93.64
2022-12-11T05:03:15.849Z,93.60
2022-12-11T05:05:48.672Z,93.19
2022-12-11T05:08:15.384Z,93.35
2022-12-11T05:10:47.120Z,93.44
2022-12-11T05:13:16.465Z,93.22
2022-12-11T05:15:43.059Z,93.25
2022-12-11T05:18:09.598Z,93.23
2022-12-11T05:20:36.173Z,93.34
2022-12-11T05:23:02.800Z,93.31
2022-12-11T05:25:30.905Z,93.08
2022-12-11T05:27:57.723Z,93.00
2022-12-11T05:30:24.253Z,92.86
2022-12-11T05:32:50.835Z,92.97
2022-12-11T05:35:18.580Z,93.02
2022-12-11T05:37:45.182Z,93.10
2022-12-11T05:40:12.774Z,92.75
2022-12-11T05:42:39.292Z,93.25
2022-12-11T05:45:06.486Z,92.65
2022-12-11T05:47:33.060Z,92.86
2022-12-11T05:49:59.603Z,92.85
2022-12-11T05:52:27.374Z,92.40
2022-12-11T05:54:53.908Z,92.42
2022-12-11T05:57:20.451Z,92.79
2022-12-11T05:59:47.271Z,92.56
2022-12-11T06:02:13.964Z,92.44
2022-12-11T06:04:40.600Z,92.44
2022-12-11T06:07:07.146Z,92.34
2022-12-11T06:09:33.725Z,92.40
2022-12-11T06:12:00.251Z,92.42
2022-12-11T06:14:27.070Z,92.30
2022-12-11T06:16:53.618Z,92.16
2022-12-11T06:19:20.327Z,92.19
2022-12-11T06:21:48.970Z,92.17
2022-12-11T06:24:15.624Z,92.02
2022-12-11T06:26:42.214Z,92.30
2022-12-11T06:29:12.502Z,91.75
2022-12-11T06:31:39.690Z,92.11
2022-12-11T06:34:06.395Z,91.97
2022-12-11T06:36:32.996Z,92.10
2022-12-11T06:39:00.840Z,91.94
2022-12-11T06:41:27.474Z,91.84
2022-12-11T06:43:54.027Z,91.62
2022-12-11T06:46:20.846Z,92.17
2022-12-11T06:48:48.713Z,92.12
2022-12-11T06:51:18.336Z,91.84
2022-12-11T06:53:44.957Z,91.77
2022-12-11T06:56:15.161Z,91.78
2022-12-11T06:58:42.930Z,91.52
2022-12-11T07:01:16.288Z,91.21
2022-12-11T07:03:43.639Z,92.12
2022-12-11T07:06:10.289Z,91.78
2022-12-11T07:08:36.892Z,91.70
2022-12-11T07:11:06.539Z,91.85
2022-12-11T07:13:33.847Z,91.49
2022-12-11T07:16:01.987Z,91.76
2022-12-11T07:18:29.067Z,91.80
2022-12-11T07:20:58.903Z,91.63
2022-12-11T07:23:26.725Z,91.49
2022-12-11T07:25:53.768Z,91.62
2022-12-11T07:28:20.577Z,91.33
2022-12-11T07:30:47.211Z,91.60
2022-12-11T07:33:13.848Z,91.48
2022-12-11T07:35:40.438Z,90.86
2022-12-11T07:38:07.191Z,91.02
2022-12-11T07:40:34.606Z,91.24
2022-12-11T07:43:01.107Z,91.18
2022-12-11T07:45:27.861Z,91.53
2022-12-11T07:51:43.877Z,91.04
2022-12-11T07:54:52.356Z,91.13
2022-12-11T07:57:18.970Z,91.17
2022-12-11T07:59:46.790Z,90.99
2022-12-11T08:02:13.339Z,91.02
2022-12-11T08:04:40.011Z,91.40
2022-12-11T08:07:07.748Z,91.31
2022-12-11T08:09:34.371Z,90.97
2022-12-11T08:12:00.992Z,90.62
2022-12-11T08:14:27.692Z,90.55
2022-12-11T08:16:54.303Z,90.61
2022-12-11T08:19:20.990Z,90.63
2022-12-11T08:21:47.566Z,90.47
2022-12-11T08:24:16.392Z,89.83
2022-12-11T08:26:42.962Z,90.27
2022-12-11T08:29:10.114Z,90.34
2022-12-11T08:31:36.839Z,90.18
2022-12-11T08:34:03.500Z,89.98
2022-12-11T08:36:30.121Z,89.54
2022-12-11T08:38:57.236Z,89.59
2022-12-11T08:41:26.749Z,89.48
2022-12-11T08:43:55.135Z,89.32
2022-12-11T08:46:24.527Z,89.16
2022-12-11T08:48:51.832Z,89.31
2022-12-11T08:51:22.430Z,89.59
2022-12-11T08:53:50.324Z,89.27
2022-12-11T08:56:20.475Z,89.19
2022-12-11T08:58:47.963Z,89.02
2022-12-11T09:01:21.807Z,89.57
2022-12-11T09:03:50.276Z,89.75
2022-12-11T09:06:20.218Z,89.66
2022-12-11T09:08:52.164Z,89.40
2022-12-11T09:11:21.975Z,89.57
2022-12-11T09:13:48.702Z,89.39
2022-12-11T09:16:19.489Z,88.86
2022-12-11T09:18:48.601Z,88.77
2022-12-11T09:21:17.226Z,89.33
2022-12-11T09:23:43.840Z,88.81
2022-12-11T09:26:13.762Z,89.03
2022-12-11T09:28:46.171Z,89.05
2022-12-11T09:31:23.811Z,88.63
2022-12-11T09:33:52.102Z,88.50
2022-12-11T09:36:19.055Z,89.02
2022-12-11T09:38:46.282Z,88.71
2022-12-11T09:41:25.363Z,88.64
2022-12-11T09:44:00.543Z,88.81
2022-12-11T09:46:33.808Z,88.72
2022-12-11T09:55:28.459Z,88.39
2022-12-11T10:00:45.914Z,87.82
2022-12-11T10:03:35.051Z,87.98
2022-12-11T10:06:14.553Z,88.00
2022-12-11T10:08:54.736Z,88.11
2022-12-11T10:11:42.527Z,88.14
2022-12-11T10:14:30.337Z,88.22
2022-12-11T10:17:04.096Z,87.62
2022-12-11T10:19:32.713Z,87.35
2022-12-11T10:22:01.068Z,86.84
2022-12-11T10:25:10.116Z,87.27
2022-12-11T10:27:32.010Z,86.73
2022-12-11T10:30:08.593Z,87.32
2022-12-11T10:32:40.009Z,87.23
2022-12-11T10:35:07.319Z,87.24
2022-12-11T10:37:33.899Z,87.15
2022-12-11T10:40:08.341Z,87.43
2022-12-11T10:42:58.493Z,86.71
2022-12-11T10:45:25.072Z,87.20
2022-12-11T10:48:02.590Z,86.98
2022-12-11T10:50:29.387Z,87.20
2022-12-11T10:52:55.948Z,87.27
2022-12-11T10:55:29.608Z,86.74
2022-12-11T11:01:32.179Z,87.29
2022-12-11T11:04:14.458Z,87.38
2022-12-11T11:10:03.256Z,87.76
2022-12-11T11:12:31.574Z,87.12
2022-12-11T11:15:19.930Z,87.35
2022-12-11T11:17:55.818Z,87.91
2022-12-11T11:20:27.733Z,87.60
2022-12-11T11:23:02.673Z,88.09
2022-12-11T11:25:35.479Z,87.49
2022-12-11T11:28:06.084Z,87.81
2022-12-11T11:30:37.321Z,87.22
2022-12-11T11:33:12.458Z,87.59
2022-12-11T11:35:45.505Z,88.03
2022-12-11T11:38:24.784Z,87.51
2022-12-11T11:41:07.573Z,87.71
2022-12-11T11:43:48.532Z,87.14
2022-12-11T11:46:16.440Z,87.58
2022-12-11T11:48:52.442Z,87.98
2022-12-11T11:51:28.400Z,87.71
2022-12-11T11:54:00.596Z,87.92
2022-12-11T11:56:37.999Z,87.29
2022-12-11T11:59:38.533Z,87.58
2022-12-11T12:02:19.373Z,88.00
2022-12-11T12:04:52.191Z,87.30
2022-12-11T12:07:51.251Z,87.55
2022-12-11T12:10:27.505Z,87.38
2022-12-11T12:13:23.831Z,87.22
2022-12-11T12:16:02.124Z,87.41
2022-12-11T12:21:25.562Z,87.39
2022-12-11T12:23:53.027Z,87.41
2022-12-11T12:26:31.692Z,87.09
2022-12-11T12:29:23.456Z,87.12
2022-12-11T12:31:50.290Z,86.84
2022-12-11T12:34:31.502Z,87.32
2022-12-11T12:37:06.118Z,86.88
2022-12-11T12:39:49.237Z,87.01
2022-12-11T12:42:37.468Z,86.60
2022-12-11T12:45:13.640Z,86.38
2022-12-11T12:47:43.424Z,86.47
2022-12-11T12:50:15.265Z,86.87
2022-12-11T12:52:42.615Z,86.93
2022-12-11T12:55:31.875Z,86.87
2022-12-11T12:58:03.253Z,86.95
2022-12-11T13:00:41.176Z,86.71
2022-12-11T13:03:18.506Z,87.08
2022-12-11T13:06:06.148Z,86.90
2022-12-11T13:08:46.341Z,86.77
2022-12-11T13:11:16.045Z,86.86
2022-12-11T13:13:54.479Z,86.42
2022-12-11T13:16:25.721Z,86.73
2022-12-11T13:18:53.610Z,87.12
2022-12-11T13:21:37.903Z,87.01
2022-12-11T13:24:13.539Z,86.35
2022-12-11T13:26:41.150Z,87.00
2022-12-11T13:29:31.658Z,87.03
2022-12-11T13:32:02.028Z,86.93
2022-12-11T13:34:33.818Z,86.27
2022-12-11T13:37:03.021Z,86.69
2022-12-11T13:39:32.361Z,86.99
2022-12-11T13:42:02.490Z,86.26
2022-12-11T13:44:34.367Z,86.22
2022-12-11T13:47:04.193Z,86.49
2022-12-11T13:49:36.878Z,86.70
2022-12-11T13:52:04.932Z,86.82
2022-12-11T13:54:36.017Z,86.62
2022-12-11T13:57:17.998Z,86.85
2022-12-11T13:59:53.160Z,87.19
2022-12-11T14:02:25.444Z,86.85
2022-12-11T14:04:56.106Z,86.81
2022-12-11T14:07:30.672Z,86.57
2022-12-11T14:10:02.654Z,86.64
2022-12-11T14:12:30.778Z,86.80
2022-12-11T14:14:59.882Z,87.28
2022-12-11T14:17:29.726Z,86.69
2022-12-11T14:19:59.306Z,87.12
2022-12-11T14:22:28.316Z,87.27
2022-12-11T14:24:58.383Z,87.45
2022-12-11T14:27:27.406Z,87.31
2022-12-11T14:29:54.282Z,87.15
2022-12-11T14:32:32.552Z,87.11
2022-12-11T14:35:04.275Z,87.33
2022-12-11T14:37:31.939Z,87.23
2022-12-11T14:40:08.232Z,87.34
2022-12-11T14:42:41.037Z,86.79
2022-12-11T14:45:14.332Z,87.20
2022-12-11T14:47:43.345Z,87.45
2022-12-11T14:50:19.968Z,87.00
2022-12-11T14:52:50.947Z,87.31
2022-12-11T14:55:25.877Z,87.51
2022-12-11T14:57:57.736Z,86.79
2022-12-11T15:00:28.487Z,87.19
2022-12-11T15:03:02.495Z,87.10
2022-12-11T15:05:30.141Z,87.29
2022-12-11T15:08:04.015Z,87.31
2022-12-11T15:10:37.140Z,87.55
2022-12-11T15:13:06.418Z,87.62
2022-12-11T15:15:44.937Z,87.99
2022-12-11T15:18:22.628Z,88.05
2022-12-11T15:20:54.821Z,87.92
2022-12-11T15:23:21.583Z,88.27
2022-12-11T15:25:58.036Z,87.94
2022-12-11T15:28:30.334Z,88.36
2022-12-11T15:31:02.218Z,88.28
2022-12-11T15:33:34.065Z,88.72
2022-12-11T15:36:05.364Z,88.35
2022-12-11T15:38:40.587Z,88.35
2022-12-11T15:41:14.733Z,88.25
2022-12-11T15:43:41.635Z,88.70
2022-12-11T15:46:08.326Z,88.65
2022-12-11T15:48:42.091Z,87.97
2022-12-11T15:51:09.759Z,88.27
2022-12-11T15:53:36.400Z,88.56
2022-12-11T15:56:03.299Z,88.63
2022-12-11T15:58:30.209Z,88.34
2022-12-11T16:00:57.857Z,88.48
2022-12-11T16:03:26.107Z,88.66
2022-12-11T16:05:53.430Z,88.63
2022-12-11T16:08:22.759Z,88.57
2022-12-11T16:10:53.287Z,88.41
2022-12-11T16:13:20.127Z,88.26
2022-12-11T16:15:48.800Z,88.12
2022-12-11T16:18:20.512Z,87.88
2022-12-11T16:20:48.367Z,88.27
2022-12-11T16:23:16.419Z,88.34
2022-12-11T16:25:45.717Z,88.35
2022-12-11T16:28:15.455Z,88.86
2022-12-11T16:30:43.742Z,88.86
2022-12-11T16:33:13.271Z,88.99
2022-12-11T16:35:42.027Z,88.94
2022-12-11T16:38:12.243Z,88.73
2022-12-11T16:40:39.020Z,88.41
2022-12-11T16:43:05.884Z,88.53
2022-12-11T16:45:33.536Z,88.61
2022-12-11T16:48:03.538Z,88.87
2022-12-11T16:50:30.185Z,89.00
2022-12-11T16:52:57.150Z,88.86
2022-12-11T16:55:23.856Z,88.63
2022-12-11T16:57:50.461Z,88.63
2022-12-11T17:00:17.443Z,89.03
2022-12-11T17:02:44.143Z,89.00
2022-12-11T17:05:11.215Z,88.79
2022-12-11T17:07:38.079Z,89.18
2022-12-11T17:10:07.060Z,88.63
2022-12-11T17:12:33.662Z,88.59
2022-12-11T17:15:05.193Z,88.51
2022-12-11T17:17:31.832Z,88.84
2022-12-11T17:19:58.653Z,88.67
2022-12-11T17:22:25.519Z,88.82
2022-12-11T17:24:52.150Z,88.71
2022-12-11T17:27:18.784Z,88.94
2022-12-11T17:29:45.483Z,88.09
2022-12-11T17:32:12.112Z,88.71
2022-12-11T17:34:38.915Z,87.97
2022-12-11T17:37:06.146Z,88.12
2022-12-11T17:39:32.941Z,88.06
2022-12-11T17:41:59.726Z,88.20
2022-12-11T17:44:30.322Z,88.01
2022-12-11T17:46:58.135Z,88.04
2022-12-11T17:49:24.906Z,87.85
2022-12-11T17:51:53.213Z,87.83
2022-12-11T17:54:20.155Z,87.70
2022-12-11T17:56:46.946Z,87.73
2022-12-11T17:59:13.623Z,87.77
2022-12-11T18:01:40.322Z,87.24
2022-12-11T18:04:06.976Z,87.69
2022-12-11T18:06:33.705Z,88.13
2022-12-11T18:09:01.467Z,87.62
2022-12-11T18:11:28.148Z,87.77
2022-12-11T18:13:55.034Z,87.89
2022-12-11T18:16:27.343Z,88.31
2022-12-11T18:18:54.382Z,88.12
2022-12-11T18:21:27.703Z,88.26
2022-12-11T18:23:54.955Z,88.03
2022-12-11T18:26:22.299Z,88.23
2022-12-11T18:28:52.430Z,88.29
2022-12-11T18:31:20.970Z,88.41
2022-12-11T18:33:48.563Z,88.63
2022-12-11T18:36:16.734Z,88.70
2022-12-11T18:38:47.079Z,88.86
2022-12-11T18:41:16.058Z,88.74
2022-12-11T18:43:42.798Z,88.51
2022-12-11T18:46:12.675Z,88.38
2022-12-11T18:48:39.899Z,88.50
2022-12-11T18:51:09.691Z,88.34
2022-12-11T18:53:39.156Z,88.46
2022-12-11T18:56:12.852Z,87.69
2022-12-11T18:58:39.847Z,87.97
2022-12-11T19:01:09.540Z,87.72
2022-12-11T19:03:36.884Z,87.58
2022-12-11T19:06:13.186Z,87.26
2022-12-11T19:08:40.215Z,86.69
2022-12-11T19:11:07.404Z,86.09
2022-12-11T19:13:34.672Z,86.09
2022-12-11T19:16:01.819Z,86.11
2022-12-11T19:18:28.509Z,85.87
2022-12-11T19:21:04.871Z,85.91
2022-12-11T19:23:35.196Z,85.74
2022-12-11T19:26:02.401Z,85.86
2022-12-11T19:28:29.297Z,85.40
2022-12-11T19:30:56.058Z,85.72
2022-12-11T19:33:22.840Z,85.54
2022-12-11T19:35:49.544Z,85.47
2022-12-11T19:38:16.187Z,85.46
2022-12-11T19:40:44.397Z,85.50
2022-12-11T19:43:11.730Z,85.45
2022-12-11T19:45:38.621Z,85.04
2022-12-11T19:48:05.764Z,84.57
2022-12-11T19:50:34.493Z,84.74
2022-12-11T19:53:01.192Z,84.17
2022-12-11T19:55:27.834Z,84.00
2022-12-11T19:57:55.454Z,84.21
2022-12-11T20:00:22.163Z,84.24
2022-12-11T20:02:49.161Z,84.57
2022-12-11T20:05:16.184Z,84.61
2022-12-11T20:07:44.706Z,84.87
2022-12-11T20:10:11.634Z,84.72
2022-12-11T20:12:38.277Z,84.61
2022-12-11T20:15:06.155Z,84.57
2022-12-11T20:17:33.474Z,84.54
2022-12-11T20:20:00.450Z,84.59
2022-12-11T20:22:27.225Z,84.45
2022-12-11T20:24:53.815Z,84.33
2022-12-11T20:27:20.416Z,83.96
2022-12-11T20:29:47.008Z,84.09
2022-12-11T20:32:15.737Z,84.17
2022-12-11T20:34:44.694Z,84.28
2022-12-11T20:37:11.343Z,84.21
2022-12-11T20:39:38.026Z,84.55
2022-12-11T20:42:05.804Z,84.68
2022-12-11T20:44:32.736Z,84.68
2022-12-11T20:46:59.371Z,84.87
2022-12-11T20:49:26.167Z,84.55
2022-12-11T20:51:52.959Z,84.75
2022-12-11T20:54:19.559Z,85.03
2022-12-11T20:56:46.308Z,84.78
2022-12-11T20:59:13.321Z,84.86
2022-12-11T21:01:40.825Z,84.52
2022-12-11T21:04:07.575Z,85.34
2022-12-11T21:06:36.471Z,84.72
2022-12-11T21:09:09.399Z,84.83
2022-12-11T21:11:36.033Z,85.14
2022-12-11T21:14:02.808Z,84.66
2022-12-11T21:16:29.550Z,84.83
2022-12-11T21:18:57.705Z,84.74
2022-12-11T21:21:25.249Z,84.70
2022-12-11T21:23:52.068Z,84.79
2022-12-11T21:26:19.313Z,84.69
2022-12-11T21:28:45.861Z,84.34
2022-12-11T21:31:15.189Z,84.38
2022-12-11T21:33:42.957Z,85.02
2022-12-11T21:39:02.875Z,85.23
2022-12-11T21:41:29.461Z,85.08
2022-12-11T21:45:14.528Z,85.52
2022-12-11T21:46:43.634Z,85.36
2022-12-11T21:49:10.342Z,85.06
2022-12-11T21:51:43.982Z,85.54
2022-12-11T21:54:16.721Z,85.29
2022-12-11T21:56:43.798Z,85.21
2022-12-11T21:59:10.472Z,85.33
2022-12-11T22:01:42.115Z,85.34
2022-12-11T22:04:10.808Z,84.96
2022-12-11T22:06:37.517Z,84.52
2022-12-11T22:09:05.185Z,84.96
2022-12-11T22:11:32.882Z,84.62
2022-12-11T22:13:59.481Z,85.02
2022-12-11T22:16:26.350Z,85.06
2022-12-11T22:18:53.462Z,85.04
2022-12-11T22:21:20.086Z,84.44
2022-12-11T22:23:47.817Z,84.71
2022-12-11T22:26:19.305Z,84.94
2022-12-11T22:28:46.079Z,84.98
2022-12-11T22:31:15.304Z,84.88
2022-12-11T22:33:42.487Z,84.80
2022-12-11T22:36:10.415Z,84.40
2022-12-11T22:38:37.139Z,85.01
2022-12-11T22:41:18.960Z,85.31
2022-12-11T22:43:48.840Z,85.16
2022-12-11T22:46:17.260Z,84.83
2022-12-11T22:48:44.025Z,84.44
2022-12-11T22:51:10.839Z,85.32
2022-12-11T22:53:37.598Z,85.30
2022-12-11T22:56:06.046Z,85.44
2022-12-11T22:58:33.378Z,85.37
2022-12-11T23:01:00.865Z,85.53
2022-12-11T23:03:27.818Z,85.55
2022-12-11T23:05:54.940Z,85.78
2022-12-11T23:08:21.713Z,85.77
2022-12-11T23:10:48.638Z,85.34
2022-12-11T23:13:15.247Z,85.24
2022-12-11T23:15:41.776Z,85.54
2022-12-11T23:18:08.372Z,85.75
2022-12-11T23:20:34.927Z,85.50
2022-12-11T23:23:01.717Z,86.05
2022-12-11T23:25:29.829Z,85.53
2022-12-11T23:27:56.466Z,85.58
2022-12-11T23:30:23.999Z,85.74
2022-12-11T23:32:50.688Z,85.71
2022-12-11T23:35:17.435Z,86.06
2022-12-11T23:37:43.994Z,85.71
2022-12-11T23:40:11.425Z,85.87
2022-12-11T23:42:38.000Z,86.05
2022-12-11T23:45:04.962Z,86.10
2022-12-11T23:47:31.533Z,85.74
2022-12-11T23:49:58.361Z,85.98
2022-12-11T23:52:26.628Z,85.53
2022-12-11T23:54:55.327Z,85.49
2022-12-11T23:57:22.051Z,85.42
2022-12-11T23:59:48.597Z,85.55
